Terminal Aerodrome Forecast
Issued by NWS

Current Version | Previous Version | Graphics & Text | Print | Product List | Glossary On
Versions: 1 2 3 4 5 6 7 8 9 10 11 12 13 14 15 16 17 18 19 20 21 22 23 24
000
FTUS41 KRLX 192300
TAFCKB
TAF
KCKB 192324Z 2000/2024 31012KT P6SM SCT060
     FM200300 31006KT P6SM BKN100
     FM200800 29004KT 3SM BR BKN020
     FM201400 30006KT P6SM BKN015
     FM201900 31007KT P6SM SCT030=

USA.gov is the U.S. government's official web portal to all federal, state and local government web resources and services.